sensor_id;sensor_type;location;lat;lon;timestamp;P1;durP1;ratioP1;P2;durP2;ratioP2
15271;SDS011;7737;51.578;7.268;2022-09-17T00:01:19;6.10;;;1.95;;
15271;SDS011;7737;51.578;7.268;2022-09-17T00:03:48;7.32;;;2.10;;
15271;SDS011;7737;51.578;7.268;2022-09-17T00:06:16;7.50;;;2.03;;
15271;SDS011;7737;51.578;7.268;2022-09-17T00:08:43;7.28;;;2.05;;
15271;SDS011;7737;51.578;7.268;2022-09-17T00:11:11;8.48;;;1.98;;
15271;SDS011;7737;51.578;7.268;2022-09-17T00:13:38;8.45;;;1.88;;
15271;SDS011;7737;51.578;7.268;2022-09-17T00:16:06;7.05;;;1.92;;
15271;SDS011;7737;51.578;7.268;2022-09-17T00:18:33;8.02;;;2.17;;
15271;SDS011;7737;51.578;7.268;2022-09-17T00:21:01;7.13;;;2.40;;
15271;SDS011;7737;51.578;7.268;2022-09-17T00:23:28;10.48;;;2.80;;
15271;SDS011;7737;51.578;7.268;2022-09-17T00:25:55;12.32;;;2.33;;
15271;SDS011;7737;51.578;7.268;2022-09-17T00:28:21;9.02;;;2.60;;
15271;SDS011;7737;51.578;7.268;2022-09-17T00:30:48;7.90;;;2.17;;
15271;SDS011;7737;51.578;7.268;2022-09-17T00:33:16;8.98;;;2.30;;
15271;SDS011;7737;51.578;7.268;2022-09-17T00:35:44;11.65;;;2.40;;
15271;SDS011;7737;51.578;7.268;2022-09-17T00:38:10;14.50;;;2.70;;
15271;SDS011;7737;51.578;7.268;2022-09-17T00:40:37;7.60;;;2.15;;
15271;SDS011;7737;51.578;7.268;2022-09-17T00:43:03;9.10;;;2.13;;
15271;SDS011;7737;51.578;7.268;2022-09-17T00:45:30;7.25;;;2.00;;
15271;SDS011;7737;51.578;7.268;2022-09-17T00:47:58;8.18;;;1.88;;
15271;SDS011;7737;51.578;7.268;2022-09-17T00:50:28;10.93;;;2.33;;
15271;SDS011;7737;51.578;7.268;2022-09-17T00:52:59;7.70;;;2.30;;
15271;SDS011;7737;51.578;7.268;2022-09-17T00:55:31;15.68;;;2.30;;
15271;SDS011;7737;51.578;7.268;2022-09-17T00:58:04;13.68;;;2.35;;
15271;SDS011;7737;51.578;7.268;2022-09-17T01:00:33;9.32;;;2.22;;
15271;SDS011;7737;51.578;7.268;2022-09-17T01:03:00;9.13;;;2.17;;
15271;SDS011;7737;51.578;7.268;2022-09-17T01:05:30;9.05;;;2.35;;
15271;SDS011;7737;51.578;7.268;2022-09-17T01:08:07;6.10;;;2.00;;
15271;SDS011;7737;51.578;7.268;2022-09-17T01:10:45;8.10;;;2.10;;
15271;SDS011;7737;51.578;7.268;2022-09-17T01:13:40;7.30;;;1.80;;
15271;SDS011;7737;51.578;7.268;2022-09-17T01:16:17;8.73;;;2.05;;
15271;SDS011;7737;51.578;7.268;2022-09-17T01:18:54;10.63;;;2.17;;
15271;SDS011;7737;51.578;7.268;2022-09-17T01:21:32;8.98;;;2.45;;
15271;SDS011;7737;51.578;7.268;2022-09-17T01:24:16;9.30;;;2.15;;
15271;SDS011;7737;51.578;7.268;2022-09-17T01:27:03;6.20;;;1.88;;
15271;SDS011;7737;51.578;7.268;2022-09-17T01:29:54;9.70;;;2.42;;
15271;SDS011;7737;51.578;7.268;2022-09-17T01:32:38;10.07;;;2.30;;
15271;SDS011;7737;51.578;7.268;2022-09-17T01:35:13;9.73;;;2.25;;
15271;SDS011;7737;51.578;7.268;2022-09-17T01:37:49;11.20;;;2.38;;
15271;SDS011;7737;51.578;7.268;2022-09-17T01:40:26;9.07;;;2.10;;
15271;SDS011;7737;51.578;7.268;2022-09-17T01:42:57;11.60;;;2.40;;
15271;SDS011;7737;51.578;7.268;2022-09-17T01:45:31;7.57;;;1.98;;
15271;SDS011;7737;51.578;7.268;2022-09-17T01:48:06;10.30;;;2.35;;
15271;SDS011;7737;51.578;7.268;2022-09-17T01:50:35;12.27;;;2.10;;
15271;SDS011;7737;51.578;7.268;2022-09-17T01:53:05;9.55;;;2.30;;
15271;SDS011;7737;51.578;7.268;2022-09-17T01:55:36;10.02;;;2.47;;
15271;SDS011;7737;51.578;7.268;2022-09-17T01:58:07;9.20;;;2.33;;
15271;SDS011;7737;51.578;7.268;2022-09-17T02:00:39;7.57;;;2.03;;
15271;SDS011;7737;51.578;7.268;2022-09-17T02:03:13;10.38;;;2.55;;
15271;SDS011;7737;51.578;7.268;2022-09-17T02:05:44;15.23;;;2.85;;
15271;SDS011;7737;51.578;7.268;2022-09-17T02:08:15;9.13;;;2.05;;
15271;SDS011;7737;51.578;7.268;2022-09-17T02:10:46;8.82;;;2.33;;
15271;SDS011;7737;51.578;7.268;2022-09-17T02:13:21;10.93;;;2.47;;
15271;SDS011;7737;51.578;7.268;2022-09-17T02:15:50;9.10;;;2.38;;
15271;SDS011;7737;51.578;7.268;2022-09-17T02:18:23;9.38;;;2.50;;
15271;SDS011;7737;51.578;7.268;2022-09-17T02:20:56;11.20;;;2.40;;
15271;SDS011;7737;51.578;7.268;2022-09-17T02:23:29;10.27;;;2.15;;
15271;SDS011;7737;51.578;7.268;2022-09-17T02:26:01;12.80;;;2.20;;
15271;SDS011;7737;51.578;7.268;2022-09-17T02:28:32;11.50;;;2.53;;
15271;SDS011;7737;51.578;7.268;2022-09-17T02:31:07;11.23;;;2.55;;
15271;SDS011;7737;51.578;7.268;2022-09-17T02:33:36;10.63;;;2.20;;
15271;SDS011;7737;51.578;7.268;2022-09-17T02:36:05;7.72;;;2.00;;
15271;SDS011;7737;51.578;7.268;2022-09-17T02:38:32;10.38;;;2.25;;
15271;SDS011;7737;51.578;7.268;2022-09-17T02:41:00;12.75;;;2.53;;
15271;SDS011;7737;51.578;7.268;2022-09-17T02:43:34;13.38;;;2.70;;
15271;SDS011;7737;51.578;7.268;2022-09-17T02:46:12;12.25;;;2.83;;
15271;SDS011;7737;51.578;7.268;2022-09-17T02:49:05;14.15;;;2.88;;
15271;SDS011;7737;51.578;7.268;2022-09-17T02:51:42;11.68;;;2.15;;
15271;SDS011;7737;51.578;7.268;2022-09-17T02:54:15;10.20;;;2.20;;
15271;SDS011;7737;51.578;7.268;2022-09-17T02:56:54;8.85;;;2.20;;
15271;SDS011;7737;51.578;7.268;2022-09-17T02:59:28;10.88;;;2.05;;
15271;SDS011;7737;51.578;7.268;2022-09-17T03:02:02;13.02;;;8.00;;
15271;SDS011;7737;51.578;7.268;2022-09-17T03:04:35;12.98;;;6.55;;
15271;SDS011;7737;51.578;7.268;2022-09-17T03:07:04;12.13;;;3.00;;
15271;SDS011;7737;51.578;7.268;2022-09-17T03:09:33;8.57;;;2.33;;
15271;SDS011;7737;51.578;7.268;2022-09-17T03:11:59;14.48;;;2.38;;
15271;SDS011;7737;51.578;7.268;2022-09-17T03:14:26;11.55;;;2.45;;
15271;SDS011;7737;51.578;7.268;2022-09-17T03:16:53;7.78;;;2.00;;
15271;SDS011;7737;51.578;7.268;2022-09-17T03:19:20;10.25;;;2.05;;
15271;SDS011;7737;51.578;7.268;2022-09-17T03:21:48;13.32;;;2.42;;
15271;SDS011;7737;51.578;7.268;2022-09-17T03:24:14;13.05;;;2.53;;
15271;SDS011;7737;51.578;7.268;2022-09-17T03:26:41;10.57;;;2.10;;
15271;SDS011;7737;51.578;7.268;2022-09-17T03:29:08;10.73;;;2.17;;
15271;SDS011;7737;51.578;7.268;2022-09-17T03:31:34;10.18;;;2.40;;
15271;SDS011;7737;51.578;7.268;2022-09-17T03:34:00;14.20;;;2.60;;
15271;SDS011;7737;51.578;7.268;2022-09-17T03:36:27;11.57;;;2.20;;
15271;SDS011;7737;51.578;7.268;2022-09-17T03:38:55;12.82;;;2.30;;
15271;SDS011;7737;51.578;7.268;2022-09-17T03:41:22;12.32;;;2.20;;
15271;SDS011;7737;51.578;7.268;2022-09-17T03:43:50;10.75;;;2.65;;
15271;SDS011;7737;51.578;7.268;2022-09-17T03:46:16;7.18;;;1.80;;
15271;SDS011;7737;51.578;7.268;2022-09-17T03:48:44;12.18;;;2.50;;
15271;SDS011;7737;51.578;7.268;2022-09-17T03:51:10;12.00;;;2.08;;
15271;SDS011;7737;51.578;7.268;2022-09-17T03:53:37;15.13;;;2.20;;
15271;SDS011;7737;51.578;7.268;2022-09-17T03:56:06;11.45;;;2.30;;
15271;SDS011;7737;51.578;7.268;2022-09-17T03:58:33;15.48;;;2.40;;
15271;SDS011;7737;51.578;7.268;2022-09-17T04:00:59;11.63;;;2.50;;
15271;SDS011;7737;51.578;7.268;2022-09-17T04:03:27;8.93;;;2.55;;
15271;SDS011;7737;51.578;7.268;2022-09-17T04:05:54;10.93;;;2.20;;
15271;SDS011;7737;51.578;7.268;2022-09-17T04:08:21;8.98;;;2.05;;
15271;SDS011;7737;51.578;7.268;2022-09-17T04:10:48;13.10;;;2.38;;
15271;SDS011;7737;51.578;7.268;2022-09-17T04:13:17;12.50;;;2.00;;
15271;SDS011;7737;51.578;7.268;2022-09-17T04:15:44;8.07;;;2.00;;
15271;SDS011;7737;51.578;7.268;2022-09-17T04:18:11;13.00;;;2.08;;
15271;SDS011;7737;51.578;7.268;2022-09-17T04:20:38;10.90;;;2.47;;
15271;SDS011;7737;51.578;7.268;2022-09-17T04:23:05;11.82;;;2.78;;
15271;SDS011;7737;51.578;7.268;2022-09-17T04:25:32;10.57;;;2.50;;
15271;SDS011;7737;51.578;7.268;2022-09-17T04:27:58;9.82;;;2.08;;
15271;SDS011;7737;51.578;7.268;2022-09-17T04:30:26;9.23;;;2.00;;
15271;SDS011;7737;51.578;7.268;2022-09-17T04:32:52;9.43;;;2.20;;
15271;SDS011;7737;51.578;7.268;2022-09-17T04:35:19;10.18;;;1.95;;
15271;SDS011;7737;51.578;7.268;2022-09-17T04:37:50;8.88;;;1.90;;
15271;SDS011;7737;51.578;7.268;2022-09-17T04:40:18;10.77;;;2.00;;
15271;SDS011;7737;51.578;7.268;2022-09-17T04:42:44;8.32;;;1.75;;
15271;SDS011;7737;51.578;7.268;2022-09-17T04:45:11;7.85;;;1.60;;
15271;SDS011;7737;51.578;7.268;2022-09-17T04:47:39;7.85;;;1.73;;
15271;SDS011;7737;51.578;7.268;2022-09-17T04:50:06;10.18;;;2.20;;
15271;SDS011;7737;51.578;7.268;2022-09-17T04:52:33;9.50;;;2.40;;
15271;SDS011;7737;51.578;7.268;2022-09-17T04:54:59;8.63;;;1.70;;
15271;SDS011;7737;51.578;7.268;2022-09-17T04:57:26;9.00;;;1.90;;
15271;SDS011;7737;51.578;7.268;2022-09-17T04:59:52;9.38;;;2.40;;
15271;SDS011;7737;51.578;7.268;2022-09-17T05:02:19;10.88;;;2.00;;
15271;SDS011;7737;51.578;7.268;2022-09-17T05:04:47;7.65;;;1.80;;
15271;SDS011;7737;51.578;7.268;2022-09-17T05:07:14;10.80;;;1.73;;
15271;SDS011;7737;51.578;7.268;2022-09-17T05:09:41;10.55;;;1.70;;
15271;SDS011;7737;51.578;7.268;2022-09-17T05:12:07;5.78;;;1.42;;
15271;SDS011;7737;51.578;7.268;2022-09-17T05:14:34;8.40;;;1.70;;
15271;SDS011;7737;51.578;7.268;2022-09-17T05:17:01;7.32;;;1.50;;
15271;SDS011;7737;51.578;7.268;2022-09-17T05:19:27;8.27;;;1.80;;
15271;SDS011;7737;51.578;7.268;2022-09-17T05:21:55;9.07;;;1.95;;
15271;SDS011;7737;51.578;7.268;2022-09-17T05:24:22;8.65;;;1.98;;
15271;SDS011;7737;51.578;7.268;2022-09-17T05:26:48;8.32;;;1.88;;
15271;SDS011;7737;51.578;7.268;2022-09-17T05:29:15;9.88;;;2.17;;
15271;SDS011;7737;51.578;7.268;2022-09-17T05:31:41;8.82;;;1.75;;
15271;SDS011;7737;51.578;7.268;2022-09-17T05:34:08;6.55;;;1.70;;
15271;SDS011;7737;51.578;7.268;2022-09-17T05:36:35;8.45;;;1.63;;
15271;SDS011;7737;51.578;7.268;2022-09-17T05:39:03;5.72;;;1.48;;
15271;SDS011;7737;51.578;7.268;2022-09-17T05:41:29;8.18;;;1.40;;
15271;SDS011;7737;51.578;7.268;2022-09-17T05:43:56;6.88;;;1.92;;
15271;SDS011;7737;51.578;7.268;2022-09-17T05:46:22;8.07;;;1.52;;
15271;SDS011;7737;51.578;7.268;2022-09-17T05:48:49;7.85;;;1.65;;
15271;SDS011;7737;51.578;7.268;2022-09-17T05:51:15;6.47;;;1.30;;
15271;SDS011;7737;51.578;7.268;2022-09-17T05:53:42;6.32;;;1.40;;
15271;SDS011;7737;51.578;7.268;2022-09-17T05:56:10;7.05;;;1.40;;
15271;SDS011;7737;51.578;7.268;2022-09-17T05:58:37;7.90;;;1.85;;
15271;SDS011;7737;51.578;7.268;2022-09-17T06:01:04;6.30;;;1.45;;
15271;SDS011;7737;51.578;7.268;2022-09-17T06:03:31;6.70;;;1.45;;
15271;SDS011;7737;51.578;7.268;2022-09-17T06:05:58;7.68;;;1.60;;
15271;SDS011;7737;51.578;7.268;2022-09-17T06:08:26;5.82;;;1.38;;
15271;SDS011;7737;51.578;7.268;2022-09-17T06:10:53;6.72;;;1.70;;
15271;SDS011;7737;51.578;7.268;2022-09-17T06:13:22;5.65;;;1.23;;
15271;SDS011;7737;51.578;7.268;2022-09-17T06:15:49;7.05;;;1.30;;
15271;SDS011;7737;51.578;7.268;2022-09-17T06:18:16;5.70;;;1.35;;
15271;SDS011;7737;51.578;7.268;2022-09-17T06:20:50;8.20;;;1.40;;
15271;SDS011;7737;51.578;7.268;2022-09-17T06:23:19;4.15;;;1.20;;
15271;SDS011;7737;51.578;7.268;2022-09-17T06:25:49;6.53;;;1.38;;
15271;SDS011;7737;51.578;7.268;2022-09-17T06:28:17;5.32;;;1.20;;
15271;SDS011;7737;51.578;7.268;2022-09-17T06:30:46;5.90;;;1.27;;
15271;SDS011;7737;51.578;7.268;2022-09-17T06:33:13;7.75;;;1.40;;
15271;SDS011;7737;51.578;7.268;2022-09-17T06:35:40;6.25;;;1.63;;
15271;SDS011;7737;51.578;7.268;2022-09-17T06:38:06;6.90;;;1.10;;
15271;SDS011;7737;51.578;7.268;2022-09-17T06:40:33;6.38;;;1.73;;
15271;SDS011;7737;51.578;7.268;2022-09-17T06:43:00;6.82;;;1.27;;
15271;SDS011;7737;51.578;7.268;2022-09-17T06:45:28;6.07;;;3.63;;
15271;SDS011;7737;51.578;7.268;2022-09-17T06:47:57;7.35;;;2.10;;
15271;SDS011;7737;51.578;7.268;2022-09-17T06:50:29;7.88;;;1.70;;
15271;SDS011;7737;51.578;7.268;2022-09-17T06:52:56;5.95;;;1.48;;
15271;SDS011;7737;51.578;7.268;2022-09-17T06:55:22;4.90;;;1.05;;
15271;SDS011;7737;51.578;7.268;2022-09-17T06:57:49;5.32;;;1.10;;
15271;SDS011;7737;51.578;7.268;2022-09-17T07:00:16;6.70;;;1.38;;
15271;SDS011;7737;51.578;7.268;2022-09-17T07:02:43;3.80;;;1.17;;
15271;SDS011;7737;51.578;7.268;2022-09-17T07:05:21;5.60;;;1.20;;
15271;SDS011;7737;51.578;7.268;2022-09-17T07:07:48;6.07;;;1.25;;
15271;SDS011;7737;51.578;7.268;2022-09-17T07:10:15;4.40;;;1.00;;
15271;SDS011;7737;51.578;7.268;2022-09-17T07:12:42;5.57;;;1.35;;
15271;SDS011;7737;51.578;7.268;2022-09-17T07:15:09;4.70;;;1.00;;
15271;SDS011;7737;51.578;7.268;2022-09-17T07:17:36;5.70;;;1.15;;
15271;SDS011;7737;51.578;7.268;2022-09-17T07:20:04;4.43;;;1.10;;
15271;SDS011;7737;51.578;7.268;2022-09-17T07:22:32;4.80;;;1.30;;
15271;SDS011;7737;51.578;7.268;2022-09-17T07:24:59;4.38;;;1.35;;
15271;SDS011;7737;51.578;7.268;2022-09-17T07:27:25;5.68;;;1.55;;
15271;SDS011;7737;51.578;7.268;2022-09-17T07:29:53;5.60;;;1.27;;
15271;SDS011;7737;51.578;7.268;2022-09-17T07:32:19;5.93;;;1.50;;
15271;SDS011;7737;51.578;7.268;2022-09-17T07:34:46;4.78;;;1.27;;
15271;SDS011;7737;51.578;7.268;2022-09-17T07:37:13;9.63;;;1.85;;
15271;SDS011;7737;51.578;7.268;2022-09-17T07:39:41;8.23;;;1.60;;
15271;SDS011;7737;51.578;7.268;2022-09-17T07:42:08;8.05;;;1.80;;
15271;SDS011;7737;51.578;7.268;2022-09-17T07:44:35;6.18;;;1.35;;
15271;SDS011;7737;51.578;7.268;2022-09-17T07:47:02;6.40;;;1.40;;
15271;SDS011;7737;51.578;7.268;2022-09-17T07:49:28;6.57;;;1.95;;
15271;SDS011;7737;51.578;7.268;2022-09-17T07:51:55;5.45;;;1.40;;
15271;SDS011;7737;51.578;7.268;2022-09-17T07:54:24;6.85;;;1.48;;
15271;SDS011;7737;51.578;7.268;2022-09-17T07:56:52;9.02;;;1.63;;
15271;SDS011;7737;51.578;7.268;2022-09-17T07:59:19;6.18;;;1.55;;
15271;SDS011;7737;51.578;7.268;2022-09-17T08:01:46;8.15;;;1.60;;
15271;SDS011;7737;51.578;7.268;2022-09-17T08:04:13;8.27;;;1.60;;
15271;SDS011;7737;51.578;7.268;2022-09-17T08:06:39;7.22;;;1.33;;
15271;SDS011;7737;51.578;7.268;2022-09-17T08:09:06;7.18;;;1.60;;
15271;SDS011;7737;51.578;7.268;2022-09-17T08:11:34;7.20;;;1.50;;
15271;SDS011;7737;51.578;7.268;2022-09-17T08:14:03;6.15;;;1.48;;
15271;SDS011;7737;51.578;7.268;2022-09-17T08:16:29;4.22;;;1.15;;
15271;SDS011;7737;51.578;7.268;2022-09-17T08:18:56;7.00;;;4.30;;
15271;SDS011;7737;51.578;7.268;2022-09-17T08:21:23;6.00;;;1.70;;
15271;SDS011;7737;51.578;7.268;2022-09-17T08:23:50;7.30;;;1.35;;
15271;SDS011;7737;51.578;7.268;2022-09-17T08:26:17;7.75;;;1.40;;
15271;SDS011;7737;51.578;7.268;2022-09-17T08:28:47;7.30;;;1.45;;
15271;SDS011;7737;51.578;7.268;2022-09-17T08:36:26;5.78;;;1.23;;
15271;SDS011;7737;51.578;7.268;2022-09-17T08:38:53;5.15;;;0.90;;
15271;SDS011;7737;51.578;7.268;2022-09-17T08:41:22;4.40;;;1.10;;
15271;SDS011;7737;51.578;7.268;2022-09-17T08:44:00;3.97;;;0.88;;
15271;SDS011;7737;51.578;7.268;2022-09-17T08:46:38;4.00;;;1.23;;
15271;SDS011;7737;51.578;7.268;2022-09-17T08:49:11;4.97;;;1.50;;
15271;SDS011;7737;51.578;7.268;2022-09-17T08:51:51;5.18;;;1.02;;
15271;SDS011;7737;51.578;7.268;2022-09-17T08:54:27;3.40;;;1.02;;
15271;SDS011;7737;51.578;7.268;2022-09-17T08:57:08;5.50;;;1.15;;
15271;SDS011;7737;51.578;7.268;2022-09-17T08:59:42;5.32;;;1.35;;
15271;SDS011;7737;51.578;7.268;2022-09-17T09:02:18;4.07;;;1.38;;
15271;SDS011;7737;51.578;7.268;2022-09-17T09:04:57;6.28;;;1.20;;
15271;SDS011;7737;51.578;7.268;2022-09-17T09:07:35;7.47;;;1.25;;
15271;SDS011;7737;51.578;7.268;2022-09-17T09:10:11;5.18;;;1.20;;
15271;SDS011;7737;51.578;7.268;2022-09-17T09:12:41;4.90;;;1.00;;
15271;SDS011;7737;51.578;7.268;2022-09-17T09:15:16;5.25;;;1.30;;
15271;SDS011;7737;51.578;7.268;2022-09-17T09:17:48;3.85;;;1.05;;
15271;SDS011;7737;51.578;7.268;2022-09-17T09:20:18;5.15;;;0.90;;
15271;SDS011;7737;51.578;7.268;2022-09-17T09:22:50;8.10;;;1.05;;
15271;SDS011;7737;51.578;7.268;2022-09-17T09:25:18;6.95;;;1.20;;
15271;SDS011;7737;51.578;7.268;2022-09-17T09:27:50;6.32;;;0.90;;
15271;SDS011;7737;51.578;7.268;2022-09-17T09:30:27;3.78;;;0.70;;
15271;SDS011;7737;51.578;7.268;2022-09-17T09:33:04;6.43;;;1.10;;
15271;SDS011;7737;51.578;7.268;2022-09-17T09:35:39;4.95;;;1.02;;
15271;SDS011;7737;51.578;7.268;2022-09-17T09:38:13;3.30;;;0.90;;
15271;SDS011;7737;51.578;7.268;2022-09-17T09:40:45;3.70;;;0.77;;
15271;SDS011;7737;51.578;7.268;2022-09-17T09:43:19;4.63;;;0.95;;
15271;SDS011;7737;51.578;7.268;2022-09-17T09:45:52;3.95;;;0.80;;
15271;SDS011;7737;51.578;7.268;2022-09-17T09:48:29;3.50;;;1.00;;
15271;SDS011;7737;51.578;7.268;2022-09-17T09:51:08;3.78;;;0.90;;
15271;SDS011;7737;51.578;7.268;2022-09-17T09:53:51;2.70;;;0.63;;
15271;SDS011;7737;51.578;7.268;2022-09-17T09:56:31;3.17;;;0.90;;
15271;SDS011;7737;51.578;7.268;2022-09-17T09:59:12;5.13;;;0.95;;
15271;SDS011;7737;51.578;7.268;2022-09-17T10:01:39;4.03;;;0.70;;
15271;SDS011;7737;51.578;7.268;2022-09-17T10:04:13;4.57;;;0.90;;
15271;SDS011;7737;51.578;7.268;2022-09-17T10:06:42;5.78;;;1.23;;
15271;SDS011;7737;51.578;7.268;2022-09-17T10:09:12;3.00;;;0.85;;
15271;SDS011;7737;51.578;7.268;2022-09-17T10:11:40;3.05;;;0.70;;
15271;SDS011;7737;51.578;7.268;2022-09-17T10:14:14;4.20;;;0.70;;
15271;SDS011;7737;51.578;7.268;2022-09-17T10:16:47;4.57;;;0.88;;
15271;SDS011;7737;51.578;7.268;2022-09-17T10:19:18;2.92;;;0.85;;
15271;SDS011;7737;51.578;7.268;2022-09-17T10:21:49;2.53;;;0.57;;
15271;SDS011;7737;51.578;7.268;2022-09-17T10:24:20;4.18;;;0.60;;
15271;SDS011;7737;51.578;7.268;2022-09-17T10:26:49;3.60;;;0.80;;
15271;SDS011;7737;51.578;7.268;2022-09-17T10:29:17;4.30;;;0.80;;
15271;SDS011;7737;51.578;7.268;2022-09-17T10:31:46;2.95;;;0.93;;
15271;SDS011;7737;51.578;7.268;2022-09-17T10:34:17;2.50;;;0.60;;
15271;SDS011;7737;51.578;7.268;2022-09-17T10:36:46;4.47;;;0.65;;
15271;SDS011;7737;51.578;7.268;2022-09-17T10:39:28;3.38;;;0.70;;
15271;SDS011;7737;51.578;7.268;2022-09-17T10:41:57;2.03;;;0.70;;
15271;SDS011;7737;51.578;7.268;2022-09-17T10:44:25;4.30;;;0.85;;
15271;SDS011;7737;51.578;7.268;2022-09-17T10:46:53;5.35;;;1.05;;
15271;SDS011;7737;51.578;7.268;2022-09-17T10:49:25;2.90;;;0.82;;
15271;SDS011;7737;51.578;7.268;2022-09-17T10:52:03;3.92;;;0.80;;
15271;SDS011;7737;51.578;7.268;2022-09-17T10:54:38;2.20;;;0.60;;
15271;SDS011;7737;51.578;7.268;2022-09-17T10:57:24;1.58;;;0.50;;
15271;SDS011;7737;51.578;7.268;2022-09-17T11:00:03;1.83;;;0.52;;
15271;SDS011;7737;51.578;7.268;2022-09-17T11:02:58;3.28;;;1.17;;
15271;SDS011;7737;51.578;7.268;2022-09-17T11:08:42;2.75;;;0.65;;
15271;SDS011;7737;51.578;7.268;2022-09-17T11:11:17;4.18;;;0.77;;
15271;SDS011;7737;51.578;7.268;2022-09-17T11:13:59;2.13;;;0.63;;
15271;SDS011;7737;51.578;7.268;2022-09-17T11:16:33;2.15;;;0.70;;
15271;SDS011;7737;51.578;7.268;2022-09-17T11:19:09;2.65;;;0.70;;
15271;SDS011;7737;51.578;7.268;2022-09-17T11:21:45;2.00;;;0.75;;
15271;SDS011;7737;51.578;7.268;2022-09-17T11:24:30;2.42;;;0.70;;
15271;SDS011;7737;51.578;7.268;2022-09-17T11:27:27;2.47;;;0.70;;
15271;SDS011;7737;51.578;7.268;2022-09-17T11:30:04;3.28;;;0.93;;
15271;SDS011;7737;51.578;7.268;2022-09-17T11:32:42;3.90;;;0.73;;
15271;SDS011;7737;51.578;7.268;2022-09-17T11:35:29;2.63;;;0.50;;
15271;SDS011;7737;51.578;7.268;2022-09-17T11:38:00;3.13;;;0.90;;
15271;SDS011;7737;51.578;7.268;2022-09-17T11:40:35;3.45;;;0.60;;
15271;SDS011;7737;51.578;7.268;2022-09-17T11:43:11;2.08;;;0.88;;
15271;SDS011;7737;51.578;7.268;2022-09-17T11:45:47;2.50;;;0.60;;
15271;SDS011;7737;51.578;7.268;2022-09-17T11:48:21;2.75;;;0.43;;
15271;SDS011;7737;51.578;7.268;2022-09-17T11:50:55;2.83;;;0.75;;
15271;SDS011;7737;51.578;7.268;2022-09-17T11:53:28;1.95;;;0.68;;
15271;SDS011;7737;51.578;7.268;2022-09-17T11:55:57;2.05;;;0.43;;
15271;SDS011;7737;51.578;7.268;2022-09-17T11:58:31;2.75;;;0.40;;
15271;SDS011;7737;51.578;7.268;2022-09-17T12:01:02;1.50;;;0.45;;
15271;SDS011;7737;51.578;7.268;2022-09-17T12:03:33;1.33;;;0.40;;
15271;SDS011;7737;51.578;7.268;2022-09-17T12:06:05;1.80;;;0.60;;
15271;SDS011;7737;51.578;7.268;2022-09-17T12:08:40;3.42;;;0.60;;
15271;SDS011;7737;51.578;7.268;2022-09-17T12:11:12;2.05;;;0.60;;
15271;SDS011;7737;51.578;7.268;2022-09-17T12:13:44;1.73;;;0.60;;
15271;SDS011;7737;51.578;7.268;2022-09-17T12:16:16;3.20;;;0.80;;
15271;SDS011;7737;51.578;7.268;2022-09-17T12:18:49;2.67;;;0.63;;
15271;SDS011;7737;51.578;7.268;2022-09-17T12:21:21;2.55;;;0.82;;
15271;SDS011;7737;51.578;7.268;2022-09-17T12:23:53;1.33;;;0.55;;
15271;SDS011;7737;51.578;7.268;2022-09-17T12:26:29;2.20;;;0.70;;
15271;SDS011;7737;51.578;7.268;2022-09-17T12:29:04;3.80;;;0.82;;
15271;SDS011;7737;51.578;7.268;2022-09-17T12:31:42;3.72;;;1.10;;
15271;SDS011;7737;51.578;7.268;2022-09-17T12:34:19;2.53;;;0.65;;
15271;SDS011;7737;51.578;7.268;2022-09-17T12:36:55;2.28;;;0.70;;
15271;SDS011;7737;51.578;7.268;2022-09-17T12:42:28;3.83;;;0.70;;
15271;SDS011;7737;51.578;7.268;2022-09-17T12:45:08;2.83;;;0.60;;
15271;SDS011;7737;51.578;7.268;2022-09-17T12:50:57;1.77;;;0.57;;
15271;SDS011;7737;51.578;7.268;2022-09-17T12:53:34;2.80;;;0.52;;
15271;SDS011;7737;51.578;7.268;2022-09-17T12:56:08;2.35;;;0.80;;
15271;SDS011;7737;51.578;7.268;2022-09-17T12:58:56;3.85;;;0.77;;
15271;SDS011;7737;51.578;7.268;2022-09-17T13:01:32;4.55;;;1.00;;
15271;SDS011;7737;51.578;7.268;2022-09-17T13:04:09;3.63;;;1.13;;
15271;SDS011;7737;51.578;7.268;2022-09-17T13:06:52;7.30;;;1.58;;
15271;SDS011;7737;51.578;7.268;2022-09-17T13:09:46;3.65;;;0.57;;
15271;SDS011;7737;51.578;7.268;2022-09-17T13:12:38;2.38;;;0.57;;
15271;SDS011;7737;51.578;7.268;2022-09-17T13:15:22;3.25;;;0.63;;
15271;SDS011;7737;51.578;7.268;2022-09-17T13:18:11;2.65;;;0.80;;
15271;SDS011;7737;51.578;7.268;2022-09-17T13:20:50;2.83;;;1.30;;
15271;SDS011;7737;51.578;7.268;2022-09-17T13:23:29;3.97;;;1.10;;
15271;SDS011;7737;51.578;7.268;2022-09-17T13:25:58;2.97;;;0.80;;
15271;SDS011;7737;51.578;7.268;2022-09-17T13:28:35;2.85;;;1.20;;
15271;SDS011;7737;51.578;7.268;2022-09-17T13:31:02;3.45;;;0.90;;
15271;SDS011;7737;51.578;7.268;2022-09-17T13:36:50;3.88;;;0.90;;
15271;SDS011;7737;51.578;7.268;2022-09-17T13:42:17;2.95;;;1.08;;
15271;SDS011;7737;51.578;7.268;2022-09-17T13:44:49;4.45;;;1.08;;
15271;SDS011;7737;51.578;7.268;2022-09-17T13:47:23;2.72;;;0.88;;
15271;SDS011;7737;51.578;7.268;2022-09-17T13:49:56;4.85;;;1.20;;
15271;SDS011;7737;51.578;7.268;2022-09-17T13:52:36;4.03;;;1.00;;
15271;SDS011;7737;51.578;7.268;2022-09-17T13:55:05;5.05;;;1.08;;
15271;SDS011;7737;51.578;7.268;2022-09-17T13:57:43;3.92;;;1.25;;
15271;SDS011;7737;51.578;7.268;2022-09-17T14:03:25;2.65;;;0.98;;
15271;SDS011;7737;51.578;7.268;2022-09-17T14:09:28;2.80;;;0.88;;
15271;SDS011;7737;51.578;7.268;2022-09-17T14:11:57;3.50;;;0.95;;
15271;SDS011;7737;51.578;7.268;2022-09-17T14:14:38;2.53;;;0.80;;
15271;SDS011;7737;51.578;7.268;2022-09-17T14:17:12;4.78;;;1.00;;
15271;SDS011;7737;51.578;7.268;2022-09-17T14:20:16;3.25;;;0.70;;
15271;SDS011;7737;51.578;7.268;2022-09-17T14:22:45;3.03;;;0.80;;
15271;SDS011;7737;51.578;7.268;2022-09-17T14:25:21;3.05;;;0.90;;
15271;SDS011;7737;51.578;7.268;2022-09-17T14:27:56;2.60;;;1.00;;
15271;SDS011;7737;51.578;7.268;2022-09-17T14:30:28;3.15;;;1.05;;
15271;SDS011;7737;51.578;7.268;2022-09-17T14:32:57;2.45;;;0.77;;
15271;SDS011;7737;51.578;7.268;2022-09-17T14:35:32;2.80;;;0.65;;
15271;SDS011;7737;51.578;7.268;2022-09-17T14:38:06;3.75;;;0.88;;
15271;SDS011;7737;51.578;7.268;2022-09-17T14:40:36;3.97;;;1.00;;
15271;SDS011;7737;51.578;7.268;2022-09-17T14:43:09;3.20;;;0.70;;
15271;SDS011;7737;51.578;7.268;2022-09-17T14:45:43;3.97;;;0.77;;
15271;SDS011;7737;51.578;7.268;2022-09-17T14:48:23;3.15;;;0.60;;
15271;SDS011;7737;51.578;7.268;2022-09-17T14:50:52;2.13;;;0.70;;
15271;SDS011;7737;51.578;7.268;2022-09-17T14:53:43;2.83;;;0.90;;
15271;SDS011;7737;51.578;7.268;2022-09-17T14:56:10;2.28;;;0.80;;
15271;SDS011;7737;51.578;7.268;2022-09-17T14:58:40;3.97;;;0.85;;
15271;SDS011;7737;51.578;7.268;2022-09-17T15:01:14;3.20;;;0.90;;
15271;SDS011;7737;51.578;7.268;2022-09-17T15:03:48;2.50;;;0.90;;
15271;SDS011;7737;51.578;7.268;2022-09-17T15:06:18;2.97;;;0.85;;
15271;SDS011;7737;51.578;7.268;2022-09-17T15:08:47;4.32;;;1.02;;
15271;SDS011;7737;51.578;7.268;2022-09-17T15:11:14;3.15;;;0.88;;
15271;SDS011;7737;51.578;7.268;2022-09-17T15:13:43;4.85;;;0.77;;
15271;SDS011;7737;51.578;7.268;2022-09-17T15:16:16;3.60;;;0.85;;
15271;SDS011;7737;51.578;7.268;2022-09-17T15:18:46;4.57;;;0.90;;
15271;SDS011;7737;51.578;7.268;2022-09-17T15:21:19;3.78;;;0.60;;
15271;SDS011;7737;51.578;7.268;2022-09-17T15:23:55;6.20;;;0.95;;
15271;SDS011;7737;51.578;7.268;2022-09-17T15:26:27;2.72;;;0.80;;
15271;SDS011;7737;51.578;7.268;2022-09-17T15:28:57;5.15;;;1.13;;
15271;SDS011;7737;51.578;7.268;2022-09-17T15:31:25;3.72;;;0.68;;
15271;SDS011;7737;51.578;7.268;2022-09-17T15:33:54;3.38;;;0.90;;
15271;SDS011;7737;51.578;7.268;2022-09-17T15:36:24;4.05;;;1.02;;
15271;SDS011;7737;51.578;7.268;2022-09-17T15:38:55;4.22;;;0.90;;
15271;SDS011;7737;51.578;7.268;2022-09-17T15:41:23;3.70;;;0.98;;
15271;SDS011;7737;51.578;7.268;2022-09-17T15:44:04;3.45;;;0.90;;
15271;SDS011;7737;51.578;7.268;2022-09-17T15:46:31;3.60;;;1.00;;
15271;SDS011;7737;51.578;7.268;2022-09-17T15:48:59;2.30;;;0.80;;
15271;SDS011;7737;51.578;7.268;2022-09-17T15:51:27;2.85;;;1.10;;